sensor_id;sensor_type;location;lat;lon;timestamp;pressure;altitude;pressure_sealevel;temperature;humidity
17072;BME280;7731;50.720;6.912;2023-02-19T00:00:25;100364.97;;;9.07;100.00
17072;BME280;7731;50.720;6.912;2023-02-19T00:02:58;100368.78;;;9.19;100.00
17072;BME280;7731;50.720;6.912;2023-02-19T00:05:30;100360.47;;;9.14;100.00
17072;BME280;7731;50.720;6.912;2023-02-19T00:08:00;100357.84;;;9.16;100.00
17072;BME280;7731;50.720;6.912;2023-02-19T00:10:30;100353.97;;;9.26;100.00
17072;BME280;7731;50.720;6.912;2023-02-19T00:13:00;100349.78;;;9.25;100.00
17072;BME280;7731;50.720;6.912;2023-02-19T00:15:31;100352.66;;;9.17;100.00
17072;BME280;7731;50.720;6.912;2023-02-19T00:18:07;100347.81;;;9.09;100.00
17072;BME280;7731;50.720;6.912;2023-02-19T00:20:40;100353.78;;;9.10;100.00
17072;BME280;7731;50.720;6.912;2023-02-19T00:23:11;100354.84;;;9.26;100.00
17072;BME280;7731;50.720;6.912;2023-02-19T00:25:42;100353.34;;;9.41;100.00
17072;BME280;7731;50.720;6.912;2023-02-19T00:28:12;100345.28;;;9.30;100.00
17072;BME280;7731;50.720;6.912;2023-02-19T00:30:42;100341.84;;;9.31;100.00
17072;BME280;7731;50.720;6.912;2023-02-19T00:33:15;100341.97;;;9.28;100.00
17072;BME280;7731;50.720;6.912;2023-02-19T00:35:45;100348.47;;;9.35;100.00
17072;BME280;7731;50.720;6.912;2023-02-19T00:38:15;100349.66;;;9.48;100.00
17072;BME280;7731;50.720;6.912;2023-02-19T00:40:45;100338.22;;;9.35;100.00
17072;BME280;7731;50.720;6.912;2023-02-19T00:43:15;100339.06;;;9.56;100.00
17072;BME280;7731;50.720;6.912;2023-02-19T00:45:45;100339.25;;;9.52;100.00
17072;BME280;7731;50.720;6.912;2023-02-19T00:48:18;100344.59;;;9.47;100.00
17072;BME280;7731;50.720;6.912;2023-02-19T00:50:48;100342.75;;;9.51;100.00
17072;BME280;7731;50.720;6.912;2023-02-19T00:53:19;100332.97;;;9.38;100.00
17072;BME280;7731;50.720;6.912;2023-02-19T00:55:49;100335.53;;;9.38;100.00
17072;BME280;7731;50.720;6.912;2023-02-19T00:58:19;100332.06;;;9.19;100.00
17072;BME280;7731;50.720;6.912;2023-02-19T01:00:49;100329.09;;;9.07;100.00
17072;BME280;7731;50.720;6.912;2023-02-19T01:03:22;100329.81;;;9.11;100.00
17072;BME280;7731;50.720;6.912;2023-02-19T01:05:52;100329.59;;;9.38;100.00
17072;BME280;7731;50.720;6.912;2023-02-19T01:08:22;100327.06;;;9.16;100.00
17072;BME280;7731;50.720;6.912;2023-02-19T01:10:56;100333.28;;;9.10;100.00
17072;BME280;7731;50.720;6.912;2023-02-19T01:13:27;100333.72;;;9.20;100.00
17072;BME280;7731;50.720;6.912;2023-02-19T01:16:02;100332.22;;;9.36;100.00
17072;BME280;7731;50.720;6.912;2023-02-19T01:18:36;100331.44;;;9.55;100.00
17072;BME280;7731;50.720;6.912;2023-02-19T01:21:10;100326.06;;;9.40;100.00
17072;BME280;7731;50.720;6.912;2023-02-19T01:23:41;100322.53;;;9.43;100.00
17072;BME280;7731;50.720;6.912;2023-02-19T01:26:13;100319.06;;;9.23;100.00
17072;BME280;7731;50.720;6.912;2023-02-19T01:28:46;100312.72;;;9.11;100.00
17072;BME280;7731;50.720;6.912;2023-02-19T01:31:19;100303.44;;;9.29;100.00
17072;BME280;7731;50.720;6.912;2023-02-19T01:33:54;100301.94;;;9.24;100.00
17072;BME280;7731;50.720;6.912;2023-02-19T01:36:25;100299.50;;;9.21;100.00
17072;BME280;7731;50.720;6.912;2023-02-19T01:38:58;100300.25;;;9.02;100.00
17072;BME280;7731;50.720;6.912;2023-02-19T01:41:31;100300.13;;;9.05;100.00
17072;BME280;7731;50.720;6.912;2023-02-19T01:44:04;100291.69;;;9.03;100.00
17072;BME280;7731;50.720;6.912;2023-02-19T01:46:36;100297.78;;;9.21;100.00
17072;BME280;7731;50.720;6.912;2023-02-19T01:49:14;100300.94;;;9.28;100.00
17072;BME280;7731;50.720;6.912;2023-02-19T01:51:54;100301.06;;;9.45;100.00
17072;BME280;7731;50.720;6.912;2023-02-19T01:54:34;100298.31;;;9.29;100.00
17072;BME280;7731;50.720;6.912;2023-02-19T01:57:11;100299.44;;;9.43;100.00
17072;BME280;7731;50.720;6.912;2023-02-19T01:59:44;100294.88;;;9.08;100.00
17072;BME280;7731;50.720;6.912;2023-02-19T02:02:19;100293.50;;;9.22;100.00
17072;BME280;7731;50.720;6.912;2023-02-19T02:04:59;100299.88;;;9.11;100.00
17072;BME280;7731;50.720;6.912;2023-02-19T02:07:30;100298.59;;;9.01;100.00
17072;BME280;7731;50.720;6.912;2023-02-19T02:10:12;100302.44;;;9.32;100.00
17072;BME280;7731;50.720;6.912;2023-02-19T02:12:57;100306.72;;;9.54;100.00
17072;BME280;7731;50.720;6.912;2023-02-19T02:15:36;100300.44;;;9.40;100.00
17072;BME280;7731;50.720;6.912;2023-02-19T02:18:20;100304.25;;;9.30;100.00
17072;BME280;7731;50.720;6.912;2023-02-19T02:21:17;100309.56;;;9.46;100.00
17072;BME280;7731;50.720;6.912;2023-02-19T02:27:20;100310.44;;;9.46;100.00
17072;BME280;7731;50.720;6.912;2023-02-19T02:30:40;100305.03;;;9.53;100.00
17072;BME280;7731;50.720;6.912;2023-02-19T02:33:23;100309.69;;;9.43;100.00
17072;BME280;7731;50.720;6.912;2023-02-19T02:36:02;100300.69;;;9.34;100.00
17072;BME280;7731;50.720;6.912;2023-02-19T02:38:37;100299.78;;;9.56;100.00
17072;BME280;7731;50.720;6.912;2023-02-19T02:41:11;100297.28;;;9.54;100.00
17072;BME280;7731;50.720;6.912;2023-02-19T02:43:41;100309.31;;;9.32;100.00
17072;BME280;7731;50.720;6.912;2023-02-19T02:46:19;100292.28;;;9.51;100.00
17072;BME280;7731;50.720;6.912;2023-02-19T02:48:56;100302.19;;;9.38;100.00
17072;BME280;7731;50.720;6.912;2023-02-19T02:51:29;100298.50;;;9.45;100.00
17072;BME280;7731;50.720;6.912;2023-02-19T02:54:06;100300.66;;;9.55;100.00
17072;BME280;7731;50.720;6.912;2023-02-19T02:56:51;100295.66;;;9.52;100.00
17072;BME280;7731;50.720;6.912;2023-02-19T02:59:27;100297.31;;;9.32;100.00
17072;BME280;7731;50.720;6.912;2023-02-19T03:02:05;100297.00;;;9.60;100.00
17072;BME280;7731;50.720;6.912;2023-02-19T03:04:49;100296.31;;;9.57;100.00
17072;BME280;7731;50.720;6.912;2023-02-19T03:07:40;100301.81;;;9.47;100.00
17072;BME280;7731;50.720;6.912;2023-02-19T03:10:17;100306.72;;;9.54;100.00
17072;BME280;7731;50.720;6.912;2023-02-19T03:12:55;100301.44;;;9.36;100.00
17072;BME280;7731;50.720;6.912;2023-02-19T03:15:45;100301.06;;;9.45;100.00
17072;BME280;7731;50.720;6.912;2023-02-19T03:18:47;100306.84;;;9.51;100.00
17072;BME280;7731;50.720;6.912;2023-02-19T03:21:34;100303.94;;;9.38;100.00
17072;BME280;7731;50.720;6.912;2023-02-19T03:24:10;100316.25;;;9.50;100.00
17072;BME280;7731;50.720;6.912;2023-02-19T03:26:56;100317.31;;;9.44;100.00
17072;BME280;7731;50.720;6.912;2023-02-19T03:29:31;100321.69;;;9.42;100.00
17072;BME280;7731;50.720;6.912;2023-02-19T03:32:08;100321.56;;;9.25;100.00
17072;BME280;7731;50.720;6.912;2023-02-19T03:34:50;100326.81;;;9.42;100.00
17072;BME280;7731;50.720;6.912;2023-02-19T03:37:31;100335.34;;;9.22;100.00
17072;BME280;7731;50.720;6.912;2023-02-19T03:40:04;100340.78;;;9.15;100.00
17072;BME280;7731;50.720;6.912;2023-02-19T03:42:46;100333.41;;;9.07;100.00
17072;BME280;7731;50.720;6.912;2023-02-19T03:45:43;100343.28;;;9.16;100.00
17072;BME280;7731;50.720;6.912;2023-02-19T03:48:29;100339.78;;;9.39;100.00
17072;BME280;7731;50.720;6.912;2023-02-19T03:51:23;100341.28;;;9.23;100.00
17072;BME280;7731;50.720;6.912;2023-02-19T03:54:09;100339.47;;;9.04;100.00
17072;BME280;7731;50.720;6.912;2023-02-19T03:56:48;100335.06;;;9.08;100.00
17072;BME280;7731;50.720;6.912;2023-02-19T03:59:27;100348.91;;;9.04;100.00
17072;BME280;7731;50.720;6.912;2023-02-19T04:02:09;100347.09;;;9.06;100.00
17072;BME280;7731;50.720;6.912;2023-02-19T04:04:47;100350.50;;;9.06;100.00
17072;BME280;7731;50.720;6.912;2023-02-19T04:07:22;100358.78;;;9.13;100.00
17072;BME280;7731;50.720;6.912;2023-02-19T04:09:55;100357.53;;;9.01;100.00
17072;BME280;7731;50.720;6.912;2023-02-19T04:12:26;100361.16;;;9.18;100.00
17072;BME280;7731;50.720;6.912;2023-02-19T04:15:03;100358.84;;;9.11;100.00
17072;BME280;7731;50.720;6.912;2023-02-19T04:17:48;100355.88;;;9.00;100.00
17072;BME280;7731;50.720;6.912;2023-02-19T04:20:23;100359.16;;;9.04;100.00
17072;BME280;7731;50.720;6.912;2023-02-19T04:22:57;100372.06;;;9.01;100.00
17072;BME280;7731;50.720;6.912;2023-02-19T04:25:29;100374.88;;;8.94;100.00
17072;BME280;7731;50.720;6.912;2023-02-19T04:28:01;100379.41;;;8.88;100.00
17072;BME280;7731;50.720;6.912;2023-02-19T04:30:31;100383.09;;;8.81;100.00
17072;BME280;7731;50.720;6.912;2023-02-19T04:33:04;100373.09;;;8.97;100.00
17072;BME280;7731;50.720;6.912;2023-02-19T04:35:34;100368.06;;;8.93;100.00
17072;BME280;7731;50.720;6.912;2023-02-19T04:38:07;100367.97;;;8.97;100.00
17072;BME280;7731;50.720;6.912;2023-02-19T04:40:38;100375.78;;;9.16;100.00
17072;BME280;7731;50.720;6.912;2023-02-19T04:43:08;100396.31;;;8.92;100.00
17072;BME280;7731;50.720;6.912;2023-02-19T04:45:40;100388.00;;;8.87;100.00
17072;BME280;7731;50.720;6.912;2023-02-19T04:48:11;100395.03;;;8.82;100.00
17072;BME280;7731;50.720;6.912;2023-02-19T04:50:41;100402.16;;;8.73;100.00
17072;BME280;7731;50.720;6.912;2023-02-19T04:53:14;100398.28;;;8.85;100.00
17072;BME280;7731;50.720;6.912;2023-02-19T04:55:44;100403.00;;;8.96;100.00
17072;BME280;7731;50.720;6.912;2023-02-19T04:58:15;100401.09;;;9.01;100.00
17072;BME280;7731;50.720;6.912;2023-02-19T05:00:45;100402.19;;;8.96;100.00
17072;BME280;7731;50.720;6.912;2023-02-19T05:03:15;100397.78;;;8.99;100.00
17072;BME280;7731;50.720;6.912;2023-02-19T05:05:45;100413.44;;;8.91;100.00
17072;BME280;7731;50.720;6.912;2023-02-19T05:08:18;100421.19;;;8.90;100.00
17072;BME280;7731;50.720;6.912;2023-02-19T05:10:48;100422.81;;;8.92;100.00
17072;BME280;7731;50.720;6.912;2023-02-19T05:13:19;100418.72;;;8.87;100.00
17072;BME280;7731;50.720;6.912;2023-02-19T05:16:01;100416.75;;;8.71;100.00
17072;BME280;7731;50.720;6.912;2023-02-19T05:18:33;100419.44;;;8.68;100.00
17072;BME280;7731;50.720;6.912;2023-02-19T05:21:04;100418.88;;;8.60;100.00
17072;BME280;7731;50.720;6.912;2023-02-19T05:23:38;100422.53;;;8.76;100.00
17072;BME280;7731;50.720;6.912;2023-02-19T05:26:14;100420.81;;;8.77;100.00
17072;BME280;7731;50.720;6.912;2023-02-19T05:28:45;100418.44;;;8.72;100.00
17072;BME280;7731;50.720;6.912;2023-02-19T05:31:17;100418.72;;;8.65;100.00
17072;BME280;7731;50.720;6.912;2023-02-19T05:33:48;100430.78;;;8.85;100.00
17072;BME280;7731;50.720;6.912;2023-02-19T05:36:20;100434.56;;;8.74;100.00
17072;BME280;7731;50.720;6.912;2023-02-19T05:38:56;100432.78;;;8.76;100.00
17072;BME280;7731;50.720;6.912;2023-02-19T05:41:29;100429.72;;;8.67;100.00
17072;BME280;7731;50.720;6.912;2023-02-19T05:44:02;100431.47;;;8.66;100.00
17072;BME280;7731;50.720;6.912;2023-02-19T05:46:32;100438.34;;;8.64;100.00
17072;BME280;7731;50.720;6.912;2023-02-19T05:49:02;100449.63;;;8.60;100.00
17072;BME280;7731;50.720;6.912;2023-02-19T05:51:33;100447.22;;;8.79;100.00
17072;BME280;7731;50.720;6.912;2023-02-19T05:54:05;100459.81;;;8.62;100.00
17072;BME280;7731;50.720;6.912;2023-02-19T05:56:38;100466.97;;;8.52;100.00
17072;BME280;7731;50.720;6.912;2023-02-19T05:59:16;100472.88;;;8.54;100.00
17072;BME280;7731;50.720;6.912;2023-02-19T06:01:47;100471.03;;;8.81;100.00
17072;BME280;7731;50.720;6.912;2023-02-19T06:04:20;100478.44;;;8.65;100.00
17072;BME280;7731;50.720;6.912;2023-02-19T06:06:53;100479.53;;;8.58;100.00
17072;BME280;7731;50.720;6.912;2023-02-19T06:09:26;100480.94;;;8.41;100.00
17072;BME280;7731;50.720;6.912;2023-02-19T06:11:56;100485.25;;;8.66;100.00
17072;BME280;7731;50.720;6.912;2023-02-19T06:14:29;100488.16;;;8.57;100.00
17072;BME280;7731;50.720;6.912;2023-02-19T06:16:59;100485.69;;;8.78;100.00
17072;BME280;7731;50.720;6.912;2023-02-19T06:19:36;100488.16;;;8.57;100.00
17072;BME280;7731;50.720;6.912;2023-02-19T06:22:07;100492.56;;;8.52;100.00
17072;BME280;7731;50.720;6.912;2023-02-19T06:24:39;100497.84;;;8.72;100.00
17072;BME280;7731;50.720;6.912;2023-02-19T06:27:12;100493.59;;;8.48;100.00
17072;BME280;7731;50.720;6.912;2023-02-19T06:29:42;100502.16;;;8.47;100.00
17072;BME280;7731;50.720;6.912;2023-02-19T06:32:15;100495.03;;;8.55;100.00
17072;BME280;7731;50.720;6.912;2023-02-19T06:34:45;100490.97;;;8.49;100.00
17072;BME280;7731;50.720;6.912;2023-02-19T06:37:15;100488.06;;;8.33;100.00
17072;BME280;7731;50.720;6.912;2023-02-19T06:39:48;100502.16;;;8.47;100.00
17072;BME280;7731;50.720;6.912;2023-02-19T06:42:20;100510.50;;;8.52;100.00
17072;BME280;7731;50.720;6.912;2023-02-19T06:44:50;100507.88;;;8.28;100.00
17072;BME280;7731;50.720;6.912;2023-02-19T06:47:23;100512.78;;;8.34;100.00
17072;BME280;7731;50.720;6.912;2023-02-19T06:49:53;100504.50;;;8.26;100.00
17072;BME280;7731;50.720;6.912;2023-02-19T06:52:23;100505.66;;;8.17;100.00
17072;BME280;7731;50.720;6.912;2023-02-19T06:54:56;100510.03;;;8.14;100.00
17072;BME280;7731;50.720;6.912;2023-02-19T06:57:26;100515.72;;;8.23;100.00
17072;BME280;7731;50.720;6.912;2023-02-19T06:59:57;100520.78;;;8.25;100.00
17072;BME280;7731;50.720;6.912;2023-02-19T07:02:27;100531.31;;;8.16;100.00
17072;BME280;7731;50.720;6.912;2023-02-19T07:04:57;100530.31;;;8.20;100.00
17072;BME280;7731;50.720;6.912;2023-02-19T07:07:27;100542.13;;;8.24;100.00
17072;BME280;7731;50.720;6.912;2023-02-19T07:10:01;100542.13;;;8.24;100.00
17072;BME280;7731;50.720;6.912;2023-02-19T07:12:31;100544.75;;;8.22;100.00
17072;BME280;7731;50.720;6.912;2023-02-19T07:15:02;100544.91;;;8.45;100.00
17072;BME280;7731;50.720;6.912;2023-02-19T07:17:34;100553.16;;;8.53;100.00
17072;BME280;7731;50.720;6.912;2023-02-19T07:20:05;100551.84;;;8.39;100.00
17072;BME280;7731;50.720;6.912;2023-02-19T07:22:35;100559.75;;;8.60;100.00
17072;BME280;7731;50.720;6.912;2023-02-19T07:25:08;100558.66;;;8.40;100.00
17072;BME280;7731;50.720;6.912;2023-02-19T07:27:38;100566.59;;;8.33;100.00
17072;BME280;7731;50.720;6.912;2023-02-19T07:30:10;100574.03;;;8.40;100.00
17072;BME280;7731;50.720;6.912;2023-02-19T07:32:40;100576.19;;;8.53;100.00
17072;BME280;7731;50.720;6.912;2023-02-19T07:35:11;100582.88;;;8.30;100.00
17072;BME280;7731;50.720;6.912;2023-02-19T07:37:42;100581.69;;;8.40;100.00
17072;BME280;7731;50.720;6.912;2023-02-19T07:40:21;100582.56;;;8.39;100.00
17072;BME280;7731;50.720;6.912;2023-02-19T07:42:51;100588.44;;;8.45;100.00
17072;BME280;7731;50.720;6.912;2023-02-19T07:45:24;100596.13;;;8.45;100.00
17072;BME280;7731;50.720;6.912;2023-02-19T07:47:54;100591.91;;;8.67;100.00
17072;BME280;7731;50.720;6.912;2023-02-19T07:50:25;100601.28;;;8.68;100.00
17072;BME280;7731;50.720;6.912;2023-02-19T07:52:55;100606.53;;;8.89;100.00
17072;BME280;7731;50.720;6.912;2023-02-19T07:55:30;100619.44;;;8.62;100.00
17072;BME280;7731;50.720;6.912;2023-02-19T07:58:01;100624.22;;;8.46;100.00
17072;BME280;7731;50.720;6.912;2023-02-19T08:00:32;100622.50;;;8.47;100.00
17072;BME280;7731;50.720;6.912;2023-02-19T08:03:04;100631.50;;;8.58;100.00
17072;BME280;7731;50.720;6.912;2023-02-19T08:05:36;100641.69;;;8.60;100.00
17072;BME280;7731;50.720;6.912;2023-02-19T08:08:10;100638.78;;;8.44;100.00
17072;BME280;7731;50.720;6.912;2023-02-19T08:10:43;100641.06;;;8.25;100.00
17072;BME280;7731;50.720;6.912;2023-02-19T08:13:28;100649.25;;;8.36;100.00
17072;BME280;7731;50.720;6.912;2023-02-19T08:16:12;100644.13;;;8.36;100.00
17072;BME280;7731;50.720;6.912;2023-02-19T08:18:59;100650.03;;;8.38;100.00
17072;BME280;7731;50.720;6.912;2023-02-19T08:21:29;100653.75;;;8.56;100.00
17072;BME280;7731;50.720;6.912;2023-02-19T08:24:00;100656.34;;;8.55;100.00
17072;BME280;7731;50.720;6.912;2023-02-19T08:26:33;100663.75;;;8.64;100.00
17072;BME280;7731;50.720;6.912;2023-02-19T08:29:05;100666.59;;;8.55;100.00
17072;BME280;7731;50.720;6.912;2023-02-19T08:31:35;100662.00;;;8.66;100.00
17072;BME280;7731;50.720;6.912;2023-02-19T08:34:09;100670.94;;;8.53;100.00
17072;BME280;7731;50.720;6.912;2023-02-19T08:36:39;100674.28;;;8.55;100.00
17072;BME280;7731;50.720;6.912;2023-02-19T08:39:13;100678.97;;;8.69;100.00
17072;BME280;7731;50.720;6.912;2023-02-19T08:41:49;100684.31;;;8.88;100.00
17072;BME280;7731;50.720;6.912;2023-02-19T08:44:20;100687.19;;;8.79;100.00
17072;BME280;7731;50.720;6.912;2023-02-19T08:46:50;100697.34;;;8.82;100.00
17072;BME280;7731;50.720;6.912;2023-02-19T08:49:24;100695.56;;;8.84;100.00
17072;BME280;7731;50.720;6.912;2023-02-19T08:51:55;100690.38;;;8.85;100.00
17072;BME280;7731;50.720;6.912;2023-02-19T08:54:25;100694.00;;;9.05;100.00
17072;BME280;7731;50.720;6.912;2023-02-19T08:56:57;100687.75;;;9.12;100.00
17072;BME280;7731;50.720;6.912;2023-02-19T08:59:30;100700.28;;;8.96;100.00
17072;BME280;7731;50.720;6.912;2023-02-19T09:02:01;100695.22;;;9.18;100.00
17072;BME280;7731;50.720;6.912;2023-02-19T09:04:31;100706.41;;;9.17;100.00
17072;BME280;7731;50.720;6.912;2023-02-19T09:07:02;100707.13;;;9.44;100.00
17072;BME280;7731;50.720;6.912;2023-02-19T09:09:37;100702.00;;;9.44;100.00
17072;BME280;7731;50.720;6.912;2023-02-19T09:12:13;100706.16;;;9.48;100.00
17072;BME280;7731;50.720;6.912;2023-02-19T09:14:43;100712.47;;;9.38;100.00
17072;BME280;7731;50.720;6.912;2023-02-19T09:17:14;100705.59;;;9.40;100.00
17072;BME280;7731;50.720;6.912;2023-02-19T09:19:44;100703.78;;;9.68;100.00
17072;BME280;7731;50.720;6.912;2023-02-19T09:22:17;100695.91;;;9.72;100.00
17072;BME280;7731;50.720;6.912;2023-02-19T09:24:47;100712.72;;;9.79;100.00
17072;BME280;7731;50.720;6.912;2023-02-19T09:27:20;100711.97;;;9.54;100.00
17072;BME280;7731;50.720;6.912;2023-02-19T09:29:50;100700.25;;;9.46;100.00
17072;BME280;7731;50.720;6.912;2023-02-19T09:32:20;100710.28;;;9.53;100.00
17072;BME280;7731;50.720;6.912;2023-02-19T09:34:51;100720.97;;;9.40;100.00
17072;BME280;7731;50.720;6.912;2023-02-19T09:37:25;100719.00;;;9.23;100.00
17072;BME280;7731;50.720;6.912;2023-02-19T09:39:56;100721.72;;;9.19;100.00
17072;BME280;7731;50.720;6.912;2023-02-19T09:42:31;100724.78;;;9.54;100.00
17072;BME280;7731;50.720;6.912;2023-02-19T09:45:15;100724.19;;;9.71;100.00
17072;BME280;7731;50.720;6.912;2023-02-19T09:47:53;100730.28;;;9.90;100.00
17072;BME280;7731;50.720;6.912;2023-02-19T09:50:33;100725.72;;;10.44;100.00
17072;BME280;7731;50.720;6.912;2023-02-19T09:53:13;100735.81;;;10.03;100.00
17072;BME280;7731;50.720;6.912;2023-02-19T09:55:45;100729.75;;;10.28;100.00
17072;BME280;7731;50.720;6.912;2023-02-19T09:58:25;100738.81;;;10.14;100.00
17072;BME280;7731;50.720;6.912;2023-02-19T10:01:02;100737.59;;;10.01;100.00
17072;BME280;7731;50.720;6.912;2023-02-19T10:03:37;100738.63;;;9.97;100.00
17072;BME280;7731;50.720;6.912;2023-02-19T10:06:19;100745.81;;;9.87;100.00
17072;BME280;7731;50.720;6.912;2023-02-19T10:09:12;100739.75;;;9.90;100.00
17072;BME280;7731;50.720;6.912;2023-02-19T10:11:48;100758.13;;;10.01;100.00
17072;BME280;7731;50.720;6.912;2023-02-19T10:14:29;100747.03;;;9.53;100.00
17072;BME280;7731;50.720;6.912;2023-02-19T10:17:05;100747.44;;;9.66;100.00
17072;BME280;7731;50.720;6.912;2023-02-19T10:19:36;100745.25;;;9.30;100.00
17072;BME280;7731;50.720;6.912;2023-02-19T10:22:08;100753.13;;;9.51;100.00
17072;BME280;7731;50.720;6.912;2023-02-19T10:24:41;100757.41;;;9.25;100.00
17072;BME280;7731;50.720;6.912;2023-02-19T10:27:14;100779.78;;;9.20;100.00
17072;BME280;7731;50.720;6.912;2023-02-19T10:29:53;100770.59;;;9.39;100.00
17072;BME280;7731;50.720;6.912;2023-02-19T10:32:25;100773.72;;;8.97;100.00
17072;BME280;7731;50.720;6.912;2023-02-19T10:35:10;100785.00;;;9.17;100.00
17072;BME280;7731;50.720;6.912;2023-02-19T10:37:44;100800.78;;;9.04;100.00
17072;BME280;7731;50.720;6.912;2023-02-19T10:40:18;100804.09;;;9.35;100.00
17072;BME280;7731;50.720;6.912;2023-02-19T10:42:53;100803.06;;;9.40;100.00
17072;BME280;7731;50.720;6.912;2023-02-19T10:45:33;100793.94;;;9.57;100.00
17072;BME280;7731;50.720;6.912;2023-02-19T10:48:22;100806.69;;;9.83;100.00
17072;BME280;7731;50.720;6.912;2023-02-19T10:50:56;100810.06;;;9.60;100.00
17072;BME280;7731;50.720;6.912;2023-02-19T10:53:44;100809.72;;;9.44;100.00
17072;BME280;7731;50.720;6.912;2023-02-19T10:56:22;100821.50;;;9.25;100.00
17072;BME280;7731;50.720;6.912;2023-02-19T10:58:52;100835.78;;;9.32;100.00
17072;BME280;7731;50.720;6.912;2023-02-19T11:01:27;100848.25;;;8.61;100.00
17072;BME280;7731;50.720;6.912;2023-02-19T11:04:16;100852.59;;;8.87;100.00
17072;BME280;7731;50.720;6.912;2023-02-19T11:06:47;100861.03;;;8.91;100.00
17072;BME280;7731;50.720;6.912;2023-02-19T11:09:27;100857.25;;;8.74;100.00
17072;BME280;7731;50.720;6.912;2023-02-19T11:12:01;100850.91;;;8.58;100.00
17072;BME280;7731;50.720;6.912;2023-02-19T11:14:35;100859.34;;;8.62;100.00
17072;BME280;7731;50.720;6.912;2023-02-19T11:17:22;100864.47;;;8.90;100.00
17072;BME280;7731;50.720;6.912;2023-02-19T11:19:56;100862.78;;;8.89;100.00
17072;BME280;7731;50.720;6.912;2023-02-19T11:22:31;100867.38;;;8.79;100.00
17072;BME280;7731;50.720;6.912;2023-02-19T11:25:17;100872.53;;;8.78;100.00
17072;BME280;7731;50.720;6.912;2023-02-19T11:28:03;100871.78;;;9.02;100.00
17072;BME280;7731;50.720;6.912;2023-02-19T11:30:47;100863.59;;;8.91;100.00
17072;BME280;7731;50.720;6.912;2023-02-19T11:33:25;100878.13;;;9.19;100.00
17072;BME280;7731;50.720;6.912;2023-02-19T11:36:28;100871.69;;;9.05;100.00
17072;BME280;7731;50.720;6.912;2023-02-19T11:39:19;100866.91;;;9.48;100.00
17072;BME280;7731;50.720;6.912;2023-02-19T11:42:26;100876.84;;;9.82;100.00
17072;BME280;7731;50.720;6.912;2023-02-19T11:45:21;100875.94;;;9.60;100.00
17072;BME280;7731;50.720;6.912;2023-02-19T11:48:29;100862.59;;;9.75;100.00
17072;BME280;7731;50.720;6.912;2023-02-19T11:51:47;100854.50;;;10.35;100.00
17072;BME280;7731;50.720;6.912;2023-02-19T11:57:38;100853.97;;;10.01;100.00
17072;BME280;7731;50.720;6.912;2023-02-19T12:00:25;100850.00;;;9.93;100.00
17072;BME280;7731;50.720;6.912;2023-02-19T12:03:21;100847.97;;;9.77;100.00
17072;BME280;7731;50.720;6.912;2023-02-19T12:06:20;100842.19;;;9.45;100.00
17072;BME280;7731;50.720;6.912;2023-02-19T12:09:21;100849.06;;;9.95;100.00
17072;BME280;7731;50.720;6.912;2023-02-19T12:12:25;100842.06;;;9.99;100.00
17072;BME280;7731;50.720;6.912;2023-02-19T12:15:42;100841.41;;;9.17;100.00
17072;BME280;7731;50.720;6.912;2023-02-19T12:21:45;100857.47;;;9.23;100.00
17072;BME280;7731;50.720;6.912;2023-02-19T12:28:20;100856.41;;;9.29;100.00
17072;BME280;7731;50.720;6.912;2023-02-19T12:31:25;100854.13;;;9.46;100.00
17072;BME280;7731;50.720;6.912;2023-02-19T12:37:55;100856.66;;;9.73;100.00
17072;BME280;7731;50.720;6.912;2023-02-19T12:40:44;100842.06;;;9.99;100.00
17072;BME280;7731;50.720;6.912;2023-02-19T12:43:19;100840.66;;;10.39;100.00
17072;BME280;7731;50.720;6.912;2023-02-19T12:45:55;100840.69;;;10.83;100.00
17072;BME280;7731;50.720;6.912;2023-02-19T12:48:32;100838.63;;;11.14;100.00
17072;BME280;7731;50.720;6.912;2023-02-19T12:51:18;100849.47;;;10.56;100.00
17072;BME280;7731;50.720;6.912;2023-02-19T12:54:00;100848.00;;;10.72;100.00
17072;BME280;7731;50.720;6.912;2023-02-19T12:56:41;100853.09;;;10.50;100.00
17072;BME280;7731;50.720;6.912;2023-02-19T12:59:21;100855.44;;;10.56;100.00
17072;BME280;7731;50.720;6.912;2023-02-19T13:02:03;100856.00;;;9.92;100.00
17072;BME280;7731;50.720;6.912;2023-02-19T13:04:46;100856.66;;;10.46;100.00
17072;BME280;7731;50.720;6.912;2023-02-19T13:07:24;100860.97;;;10.22;100.00
17072;BME280;7731;50.720;6.912;2023-02-19T13:10:14;100859.81;;;10.29;100.00
17072;BME280;7731;50.720;6.912;2023-02-19T13:12:49;100848.06;;;10.47;100.00
17072;BME280;7731;50.720;6.912;2023-02-19T13:15:29;100862.56;;;10.71;100.00
17072;BME280;7731;50.720;6.912;2023-02-19T13:18:06;100861.47;;;10.55;100.00
17072;BME280;7731;50.720;6.912;2023-02-19T13:20:45;100866.25;;;10.17;100.00
17072;BME280;7731;50.720;6.912;2023-02-19T13:23:24;100867.41;;;10.08;100.00
17072;BME280;7731;50.720;6.912;2023-02-19T13:26:41;100868.13;;;10.37;100.00
17072;BME280;7731;50.720;6.912;2023-02-19T13:29:35;100874.16;;;10.36;100.00
17072;BME280;7731;50.720;6.912;2023-02-19T13:35:56;100876.00;;;10.07;100.00
17072;BME280;7731;50.720;6.912;2023-02-19T13:38:36;100874.63;;;10.22;100.00
17072;BME280;7731;50.720;6.912;2023-02-19T13:41:31;100878.81;;;10.25;100.00
17072;BME280;7731;50.720;6.912;2023-02-19T13:44:07;100859.38;;;10.17;100.00
17072;BME280;7731;50.720;6.912;2023-02-19T13:46:47;100875.84;;;9.63;100.00
17072;BME280;7731;50.720;6.912;2023-02-19T13:49:48;100878.75;;;9.77;100.00
17072;BME280;7731;50.720;6.912;2023-02-19T13:52:45;100874.25;;;9.59;100.00
17072;BME280;7731;50.720;6.912;2023-02-19T13:55:50;100876.72;;;9.35;100.00
17072;BME280;7731;50.720;6.912;2023-02-19T13:59:18;100874.66;;;9.46;100.00
17072;BME280;7731;50.720;6.912;2023-02-19T14:02:23;100879.88;;;9.43;100.00
17072;BME280;7731;50.720;6.912;2023-02-19T14:05:04;100886.00;;;9.66;100.00
17072;BME280;7731;50.720;6.912;2023-02-19T14:07:53;100884.81;;;9.50;100.00
17072;BME280;7731;50.720;6.912;2023-02-19T14:10:54;100894.63;;;9.37;100.00
17072;BME280;7731;50.720;6.912;2023-02-19T14:14:03;100889.38;;;9.13;100.00